Andover, Maine
Current Conditions -  °F | °C
As of 12:02 AM on Friday 28 Nov 2014 (Local Time) from KBML Reporting Station
Broken Clouds Broken Clouds  
Wind Chill: 19°   Ceiling: 12000
Heat Index: 19°   Visibility: 10mi
Dew Point: 16°   Wind: 0mph
Humidity: 88%   Direction: NA
Pressure: 29.97"   Gusts: NA
Location:  44.64°N, 70.75°W
Report Text: KBML 280502Z AUTO 00000KT 10SM FEW022 BKN120 M07/M09 A2997 RMK AO2 T10721089
Loading
Personal Weather Stations






























Interactive Weather Map New forecast layout! Learn more

10-Day Weather Forecast

Advertisements
Track Severe Weather on mobile